Time;durP1;ratioP1;P1;durP2;ratioP2;P2;SDS_P1;SDS_P2;PMS_P1;PMS_P2;Temp;Humidity;BMP_temperature;BMP_pressure;BME280_temperature;BME280_humidity;BME280_pressure;Samples;Min_cycle;Max_cycle;Signal;HPM_P1;HPM_P2
2023/07/24 08:47:45;;;;;;;7.50;5.90;;;;;;;17.06;100.00;100162.91;5052761;28;20899;-66
2023/07/24 08:50:15;;;;;;;8.82;6.22;;;;;;;17.10;100.00;100159.31;5049756;28;20052;-67
2023/07/24 08:52:42;;;;;;;9.13;6.43;;;;;;;17.14;100.00;100152.19;5068517;28;20029;-69
2023/07/24 08:55:08;;;;;;;6.97;5.57;;;;;;;17.21;100.00;100145.56;5069572;28;20410;-66
2023/07/24 08:57:33;;;;;;;6.88;5.47;;;;;;;17.18;100.00;100150.53;5080872;28;20069;-71
2023/07/24 09:00:00;;;;;;;6.18;5.40;;;;;;;17.12;100.00;100145.38;5077294;28;20131;-73
2023/07/24 09:02:26;;;;;;;7.82;5.72;;;;;;;17.12;100.00;100134.44;5064633;28;20025;-76
2023/07/24 09:04:54;;;;;;;7.28;5.30;;;;;;;17.12;100.00;100138.00;5065639;28;20456;-75
2023/07/24 09:07:20;;;;;;;6.55;5.50;;;;;;;17.14;100.00;100126.78;5067743;28;20082;-74
2023/07/24 09:09:49;;;;;;;6.43;5.15;;;;;;;17.18;100.00;100125.09;5057844;28;20414;-69
2023/07/24 09:12:15;;;;;;;7.85;5.50;;;;;;;17.29;100.00;100123.09;5057960;28;20067;-69
2023/07/24 09:14:41;;;;;;;5.97;5.38;;;;;;;17.44;100.00;100116.66;5059523;28;20033;-69
2023/07/24 09:17:11;;;;;;;6.68;5.35;;;;;;;17.46;100.00;100103.50;5067271;28;20039;-75
2023/07/24 09:19:37;;;;;;;6.25;5.57;;;;;;;17.56;100.00;100111.63;5065329;28;20032;-71
2023/07/24 09:22:14;;;;;;;5.80;5.20;;;;;;;17.57;100.00;100115.16;5084454;28;20115;-69
2023/07/24 09:24:50;;;;;;;7.18;4.22;;;;;;;17.59;100.00;100110.19;5074954;28;20029;-67
2023/07/24 09:27:16;;;;;;;3.92;3.40;;;;;;;17.45;100.00;100097.22;5082489;28;20516;-71
2023/07/24 09:29:41;;;;;;;4.40;3.45;;;;;;;17.42;100.00;100108.75;5086879;28;20028;-70
2023/07/24 09:32:07;;;;;;;3.60;3.30;;;;;;;17.43;100.00;100098.63;5088426;28;20489;-70
2023/07/24 09:34:33;;;;;;;3.78;3.40;;;;;;;17.39;100.00;100100.28;5058760;28;20071;-69
2023/07/24 09:36:58;;;;;;;3.28;3.05;;;;;;;17.39;100.00;100094.81;5083664;28;20024;-69
2023/07/24 09:39:25;;;;;;;3.20;2.90;;;;;;;17.42;100.00;100086.03;5086488;28;20123;-71
2023/07/24 09:41:52;;;;;;;4.45;3.08;;;;;;;17.45;100.00;100080.00;5044790;28;20033;-71
2023/07/24 09:44:17;;;;;;;2.90;2.70;;;;;;;17.42;100.00;100080.56;5047406;28;20029;-70
2023/07/24 09:46:43;;;;;;;3.50;2.92;;;;;;;17.42;100.00;100075.94;5043526;28;20594;-73
2023/07/24 09:49:09;;;;;;;2.80;2.60;;;;;;;17.45;100.00;100066.31;5047134;28;20067;-70
2023/07/24 09:51:35;;;;;;;3.58;2.90;;;;;;;17.48;100.00;100055.63;5049906;28;20107;-69
2023/07/24 09:54:16;;;;;;;3.85;3.22;;;;;;;17.51;100.00;100060.50;5059246;28;20035;-70
2023/07/24 09:56:41;;;;;;;4.53;3.28;;;;;;;17.47;100.00;100055.91;5048692;28;20506;-70
2023/07/24 09:59:09;;;;;;;3.45;3.15;;;;;;;17.43;100.00;100058.41;5047531;28;20029;-73
2023/07/24 10:01:34;;;;;;;3.55;3.20;;;;;;;17.41;100.00;100048.84;5036314;28;20037;-74
2023/07/24 10:04:01;;;;;;;4.35;3.50;;;;;;;17.38;100.00;100050.25;5055024;28;20368;-69
2023/07/24 10:06:29;;;;;;;6.70;3.42;;;;;;;17.40;100.00;100053.50;5055191;28;20120;-69
2023/07/24 10:08:55;;;;;;;4.18;3.35;;;;;;;17.41;100.00;100065.25;5053881;28;20407;-71
2023/07/24 10:11:21;;;;;;;3.53;3.22;;;;;;;17.38;100.00;100069.41;5050143;28;20033;-73
2023/07/24 10:13:47;;;;;;;3.42;3.10;;;;;;;17.36;100.00;100079.81;5054499;28;20028;-71
2023/07/24 10:16:13;;;;;;;6.20;3.50;;;;;;;17.33;100.00;100083.13;5053488;28;20082;-67
2023/07/24 10:18:44;;;;;;;3.30;3.10;;;;;;;17.26;100.00;100079.94;5054785;28;20041;-74
2023/07/24 10:21:10;;;;;;;4.40;3.28;;;;;;;17.26;100.00;100079.94;5054885;28;20035;-72
2023/07/24 10:23:36;;;;;;;3.75;3.33;;;;;;;17.23;100.00;100091.44;5055287;28;20025;-67
2023/07/24 10:26:04;;;;;;;3.30;3.10;;;;;;;17.20;100.00;100097.50;5045701;28;20461;-69
2023/07/24 10:28:32;;;;;;;3.63;3.30;;;;;;;17.15;100.00;100093.69;5054966;28;20068;-70
2023/07/24 10:30:57;;;;;;;3.65;3.38;;;;;;;17.19;100.00;100091.19;5054632;28;20035;-68
2023/07/24 10:33:23;;;;;;;4.25;3.65;;;;;;;17.22;100.00;100090.59;5055055;28;20033;-74
2023/07/24 10:35:54;;;;;;;3.75;3.45;;;;;;;17.17;100.00;100094.19;5036972;28;20040;-70
2023/07/24 10:38:34;;;;;;;3.92;3.63;;;;;;;17.23;100.00;100089.50;5034754;28;20026;-72
2023/07/24 10:41:04;;;;;;;3.88;3.58;;;;;;;17.23;100.00;100086.78;5034508;28;20068;-69
2023/07/24 10:43:43;;;;;;;4.38;4.00;;;;;;;17.32;100.00;100089.72;5031379;28;20030;-73
2023/07/24 10:46:09;;;;;;;4.35;3.90;;;;;;;17.39;100.00;100095.63;5034805;28;20049;-74
2023/07/24 10:48:34;;;;;;;4.00;3.60;;;;;;;17.46;100.00;100107.06;5025471;28;20076;-75
2023/07/24 10:51:07;;;;;;;4.32;3.78;;;;;;;17.54;100.00;100116.53;5022259;28;20084;-74
2023/07/24 10:53:35;;;;;;;3.95;3.65;;;;;;;17.58;100.00;100120.34;5022097;28;20029;-73
2023/07/24 10:56:00;;;;;;;3.63;3.33;;;;;;;17.60;100.00;100106.38;5025147;28;20053;-72
2023/07/24 10:58:26;;;;;;;4.13;3.72;;;;;;;17.61;100.00;100097.06;5036434;28;20065;-69
2023/07/24 11:00:52;;;;;;;5.00;3.53;;;;;;;17.61;100.00;100103.34;5026905;28;20025;-69
2023/07/24 11:03:17;;;;;;;3.58;3.15;;;;;;;17.64;100.00;100102.75;5052713;28;20076;-72
2023/07/24 11:05:44;;;;;;;3.65;3.35;;;;;;;17.71;100.00;100113.38;5024048;28;20080;-72
2023/07/24 11:08:18;;;;;;;3.90;3.60;;;;;;;17.79;100.00;100109.97;5028186;28;20079;-71
2023/07/24 11:10:50;;;;;;;4.30;3.60;;;;;;;17.83;100.00;100100.09;5028618;28;20034;-74
2023/07/24 11:13:17;;;;;;;4.30;3.90;;;;;;;17.87;100.00;100109.34;5032591;28;20030;-71
2023/07/24 11:15:43;;;;;;;4.13;3.75;;;;;;;17.91;100.00;100117.81;5035856;28;20453;-68
2023/07/24 11:18:09;;;;;;;4.50;4.10;;;;;;;17.90;100.00;100116.19;5032868;28;20026;-70
2023/07/24 11:20:57;;;;;;;4.88;4.30;;;;;;;17.91;100.00;100117.81;5039239;28;20075;-69
2023/07/24 11:23:23;;;;;;;5.10;4.60;;;;;;;17.90;100.00;100107.97;5036145;28;20046;-71
2023/07/24 11:25:54;;;;;;;4.97;4.47;;;;;;;17.94;100.00;100117.22;5037696;28;20468;-70
2023/07/24 11:28:19;;;;;;;5.78;4.63;;;;;;;17.99;100.00;100113.63;5052564;28;20465;-71
2023/07/24 11:30:45;;;;;;;4.45;4.05;;;;;;;18.09;100.00;100118.97;5053721;28;20052;-70
2023/07/24 11:33:12;;;;;;;4.35;3.95;;;;;;;18.13;100.00;100114.53;5042110;28;20064;-68
2023/07/24 11:35:40;;;;;;;4.32;4.03;;;;;;;18.16;100.00;100124.91;5053840;28;20029;-67
2023/07/24 11:38:07;;;;;;;3.95;3.55;;;;;;;18.28;100.00;100126.38;5062526;28;20116;-66
2023/07/24 11:40:35;;;;;;;4.90;4.20;;;;;;;18.29;100.00;100128.03;5066063;28;20029;-68
2023/07/24 11:43:02;;;;;;;4.65;4.20;;;;;;;18.26;100.00;100121.19;5041952;28;20043;-71
2023/07/24 11:45:28;;;;;;;5.30;4.50;;;;;;;18.23;100.00;100117.13;5047774;28;20029;-68
2023/07/24 11:47:54;;;;;;;5.28;4.78;;;;;;;18.20;100.00;100109.50;5049188;28;20043;-69
2023/07/24 11:50:20;;;;;;;5.35;4.28;;;;;;;18.24;100.00;100105.06;5048503;28;20029;-71
2023/07/24 11:52:52;;;;;;;5.97;4.15;;;;;;;18.27;100.00;100111.88;5053298;28;20031;-69
2023/07/24 11:55:29;;;;;;;4.70;4.30;;;;;;;18.33;100.00;100102.50;5048497;28;20464;-68
2023/07/24 11:57:56;;;;;;;4.40;4.00;;;;;;;18.39;100.00;100103.25;5053218;28;20097;-68
2023/07/24 12:00:22;;;;;;;4.78;4.32;;;;;;;18.42;100.00;100106.19;5051959;28;20605;-68
2023/07/24 12:02:48;;;;;;;4.80;4.40;;;;;;;18.46;100.00;100091.91;5052173;28;20033;-74
2023/07/24 12:05:13;;;;;;;6.88;4.55;;;;;;;18.57;100.00;100090.66;5052781;28;20082;-72
2023/07/24 12:07:39;;;;;;;5.53;4.57;;;;;;;18.62;100.00;100092.50;5052858;28;20041;-73
2023/07/24 12:10:08;;;;;;;4.72;4.43;;;;;;;18.69;100.00;100091.00;5051139;28;20017;-72
2023/07/24 12:12:39;;;;;;;5.28;4.72;;;;;;;18.75;100.00;100091.72;5051340;28;20071;-71
2023/07/24 12:15:04;;;;;;;4.50;4.10;;;;;;;18.82;100.00;100088.63;5035530;28;20134;-71
2023/07/24 12:17:30;;;;;;;4.57;4.18;;;;;;;18.87;100.00;100081.16;5032918;28;20473;-70
2023/07/24 12:19:55;;;;;;;5.00;4.43;;;;;;;18.88;100.00;100085.50;5032913;28;20412;-71
2023/07/24 12:22:20;;;;;;;4.80;4.07;;;;;;;18.89;100.00;100081.66;5032405;28;20021;-71
2023/07/24 12:24:46;;;;;;;6.90;4.43;;;;;;;18.94;100.00;100078.81;5033030;28;20033;-70
2023/07/24 12:27:11;;;;;;;4.63;4.22;;;;;;;19.03;100.00;100076.22;5052499;28;20065;-69
2023/07/24 12:29:36;;;;;;;4.60;4.20;;;;;;;19.23;100.00;100075.03;5048272;28;20098;-71
2023/07/24 12:32:03;;;;;;;5.07;4.45;;;;;;;19.35;100.00;100081.97;5030437;28;20076;-75
2023/07/24 12:34:28;;;;;;;5.75;4.40;;;;;;;19.35;100.00;100079.22;5031303;28;20380;-75
2023/07/24 12:36:54;;;;;;;5.25;4.75;;;;;;;19.28;100.00;100077.69;5031163;28;20105;-71
2023/07/24 12:39:20;;;;;;;6.03;5.47;;;;;;;19.26;100.00;100084.59;5032154;28;20075;-73
2023/07/24 12:41:45;;;;;;;7.80;5.35;;;;;;;19.12;100.00;100079.09;5031216;28;20021;-72
2023/07/24 12:44:10;;;;;;;6.20;5.43;;;;;;;19.05;100.00;100081.41;5032191;28;20041;-74
2023/07/24 12:46:36;;;;;;;6.95;5.88;;;;;;;19.04;100.00;100068.81;5029747;28;20053;-78
2023/07/24 12:49:01;;;;;;;6.10;5.53;;;;;;;19.12;100.00;100068.13;5032737;28;20041;-72
2023/07/24 12:51:26;;;;;;;6.63;5.40;;;;;;;19.16;100.00;100066.41;5046119;28;20032;-74
2023/07/24 12:53:52;;;;;;;6.32;5.50;;;;;;;19.11;100.00;100077.44;5037780;28;20102;-71
2023/07/24 12:56:17;;;;;;;6.93;5.93;;;;;;;19.13;100.00;100080.72;5031319;28;20115;-71
2023/07/24 12:58:44;;;;;;;7.10;6.38;;;;;;;19.32;100.00;100077.91;5028006;28;20113;-71
2023/07/24 13:01:09;;;;;;;7.32;6.55;;;;;;;19.42;100.00;100076.91;5029781;28;20065;-71
2023/07/24 13:03:34;;;;;;;7.70;7.00;;;;;;;19.46;100.00;100070.50;5052232;28;20486;-71
2023/07/24 13:06:00;;;;;;;7.30;6.60;;;;;;;19.56;100.00;100071.41;5040310;28;20527;-70
2023/07/24 13:08:25;;;;;;;8.82;5.95;;;;;;;19.46;100.00;100077.91;5039049;28;20185;-69
2023/07/24 13:10:51;;;;;;;6.65;6.00;;;;;;;19.34;100.00;100063.88;5052569;28;20036;-69
2023/07/24 13:13:17;;;;;;;6.90;6.10;;;;;;;19.38;100.00;100064.91;5049537;28;20116;-69
2023/07/24 13:15:42;;;;;;;8.70;6.30;;;;;;;19.57;100.00;100054.66;5039603;28;20119;-69
2023/07/24 13:18:08;;;;;;;7.07;5.85;;;;;;;19.83;100.00;100054.16;5051931;28;20028;-68
2023/07/24 13:20:33;;;;;;;6.80;5.05;;;;;;;20.01;100.00;100047.72;5052181;28;20112;-69
2023/07/24 13:22:59;;;;;;;6.22;5.22;;;;;;;20.06;100.00;100055.03;5051907;28;20025;-70
2023/07/24 13:25:24;;;;;;;8.48;5.47;;;;;;;20.25;100.00;100052.16;5025699;28;20104;-69
2023/07/24 13:27:50;;;;;;;6.68;4.97;;;;;;;20.36;100.00;100053.53;5042327;28;20071;-69
2023/07/24 13:30:15;;;;;;;7.20;5.50;;;;;;;20.19;100.00;100050.63;5051941;28;20120;-69
2023/07/24 13:32:41;;;;;;;7.55;5.20;;;;;;;19.98;100.00;100050.28;5052459;28;20052;-68
2023/07/24 13:35:06;;;;;;;5.60;5.00;;;;;;;19.78;100.00;100057.03;5056084;28;20037;-69
2023/07/24 13:37:32;;;;;;;6.65;5.20;;;;;;;19.59;100.00;100055.16;5057085;28;20033;-70
2023/07/24 13:39:57;;;;;;;6.03;5.20;;;;;;;19.51;100.00;100061.34;5054387;28;20028;-69
2023/07/24 13:42:22;;;;;;;7.93;4.78;;;;;;;19.38;100.00;100048.44;5053417;28;20020;-69
2023/07/24 13:44:48;;;;;;;7.53;5.20;;;;;;;19.30;100.00;100058.19;5047624;28;20039;-69
2023/07/24 13:47:13;;;;;;;7.97;4.85;;;;;;;19.23;100.00;100061.31;5053912;28;20481;-70
2023/07/24 13:49:38;;;;;;;8.07;5.15;;;;;;;19.15;100.00;100064.75;5055286;28;20055;-68
2023/07/24 13:52:04;;;;;;;5.28;4.82;;;;;;;19.08;100.00;100075.31;5036313;28;20029;-69
2023/07/24 13:54:29;;;;;;;6.72;5.18;;;;;;;18.92;100.00;100085.75;5035463;28;20033;-69
2023/07/24 13:56:54;;;;;;;6.88;6.10;;;;;;;18.72;100.00;100081.34;5029935;28;20056;-69
2023/07/24 13:59:20;;;;;;;9.13;6.10;;;;;;;18.47;100.00;100091.59;5015531;28;20022;-70
2023/07/24 14:01:45;;;;;;;7.47;6.65;;;;;;;18.24;100.00;100085.91;5026770;28;20037;-70
2023/07/24 14:04:12;;;;;;;8.10;6.50;;;;;;;18.10;100.00;100082.28;5033795;28;20029;-70
2023/07/24 14:06:37;;;;;;;8.63;6.75;;;;;;;17.98;100.00;100098.28;5035519;28;20025;-73
2023/07/24 14:09:03;;;;;;;9.77;7.45;;;;;;;17.85;100.00;100108.81;5030048;28;20049;-78
2023/07/24 14:11:29;;;;;;;8.30;7.00;;;;;;;17.76;100.00;100098.81;5023770;28;20025;-75
2023/07/24 14:13:57;;;;;;;8.80;6.80;;;;;;;17.71;100.00;100105.97;5034870;28;20029;-76
2023/07/24 14:16:22;;;;;;;8.75;6.70;;;;;;;17.69;100.00;100093.66;5033754;28;20118;-69
2023/07/24 14:18:47;;;;;;;10.05;6.50;;;;;;;17.74;100.00;100107.31;5035216;28;20427;-69
2023/07/24 14:21:13;;;;;;;8.85;6.75;;;;;;;17.74;100.00;100101.00;5051623;28;20537;-69
2023/07/24 14:23:38;;;;;;;8.88;6.88;;;;;;;18.13;100.00;100095.38;5037868;28;20034;-76
2023/07/24 14:26:03;;;;;;;7.15;6.30;;;;;;;18.53;100.00;100098.63;5032644;28;20385;-70
2023/07/24 14:28:29;;;;;;;6.25;5.40;;;;;;;18.90;100.00;100098.91;5030179;28;20060;-70
2023/07/24 14:30:54;;;;;;;7.82;5.25;;;;;;;19.13;100.00;100091.69;5030744;28;20117;-70
2023/07/24 14:33:19;;;;;;;6.68;5.25;;;;;;;19.51;100.00;100083.31;5032301;28;20035;-71
2023/07/24 14:35:45;;;;;;;4.97;4.47;;;;;;;19.81;100.00;100084.66;5030703;28;20117;-70
2023/07/24 14:38:10;;;;;;;7.57;5.15;;;;;;;19.90;100.00;100075.69;5057538;28;20084;-69
2023/07/24 14:40:35;;;;;;;7.95;4.82;;;;;;;19.98;100.00;100073.03;5068572;28;20029;-69
2023/07/24 14:43:01;;;;;;;5.50;4.25;;;;;;;20.03;100.00;100069.38;5055438;28;20027;-72
2023/07/24 14:45:27;;;;;;;7.30;4.47;;;;;;;20.07;100.00;100069.59;5038122;28;20104;-69
2023/07/24 14:47:52;;;;;;;6.03;4.25;;;;;;;20.15;100.00;100068.84;5034829;28;20465;-71
2023/07/24 14:50:17;;;;;;;7.93;3.67;;;;;;;20.16;100.00;100068.53;5034381;28;20029;-73
2023/07/24 14:52:43;;;;;;;5.88;4.28;;;;;;;20.06;100.00;100073.44;5034204;28;20103;-70
2023/07/24 14:55:09;;;;;;;7.22;4.53;;;;;;;20.08;100.00;100066.53;5032818;28;20388;-71
2023/07/24 14:57:35;;;;;;;8.60;4.80;;;;;;;20.16;100.00;100073.22;5031406;28;20033;-70
2023/07/24 15:00:00;;;;;;;6.78;4.78;;;;;;;20.28;100.00;100076.25;5047676;28;20039;-70
2023/07/24 15:02:26;;;;;;;6.28;4.22;;;;;;;20.56;100.00;100069.84;5035904;28;20033;-69
2023/07/24 15:04:51;;;;;;;6.45;3.80;;;;;;;20.77;100.00;100070.19;5032425;28;20381;-71
2023/07/24 15:07:16;;;;;;;8.73;3.50;;;;;;;20.83;100.00;100067.00;5033356;28;20409;-68
2023/07/24 15:09:42;;;;;;;6.10;3.28;;;;;;;20.65;100.00;100073.47;5033667;28;20022;-71
2023/07/24 15:12:08;;;;;;;6.00;3.50;;;;;;;20.52;100.00;100075.16;5033811;28;20057;-71
2023/07/24 15:14:33;;;;;;;5.68;3.60;;;;;;;20.60;100.00;100076.34;5032413;28;20025;-70
2023/07/24 15:16:58;;;;;;;4.63;3.35;;;;;;;20.68;100.00;100087.47;5033347;28;20033;-71
2023/07/24 15:19:24;;;;;;;4.68;3.55;;;;;;;20.81;100.00;100079.47;5032776;28;20025;-70
2023/07/24 15:21:49;;;;;;;5.35;3.55;;;;;;;20.99;100.00;100086.69;5027928;28;20124;-70
2023/07/24 15:24:17;;;;;;;6.15;4.00;;;;;;;21.06;93.38;100089.00;5013497;28;20108;-69
2023/07/24 15:26:44;;;;;;;5.85;4.07;;;;;;;21.04;99.26;100100.31;5013274;28;20018;-71
2023/07/24 15:29:09;;;;;;;6.10;3.75;;;;;;;21.05;100.00;100096.44;5033204;28;20109;-70
2023/07/24 15:31:36;;;;;;;5.50;3.65;;;;;;;21.36;100.00;100089.31;5034152;28;20120;-71
2023/07/24 15:34:02;;;;;;;4.82;3.60;;;;;;;21.79;91.71;100094.22;5033316;28;20026;-69
2023/07/24 15:36:27;;;;;;;7.35;3.67;;;;;;;21.63;93.75;100104.84;5031618;28;20483;-67
2023/07/24 15:38:52;;;;;;;7.63;3.72;;;;;;;21.14;100.00;100120.44;5033597;28;20029;-70
2023/07/24 15:41:18;;;;;;;4.18;3.33;;;;;;;20.75;100.00;100125.50;5032691;28;20021;-72
2023/07/24 15:43:43;;;;;;;5.40;3.63;;;;;;;20.39;100.00;100114.50;5031283;28;20099;-69
2023/07/24 15:46:08;;;;;;;6.10;3.92;;;;;;;19.98;100.00;100110.69;5027718;28;20054;-71
2023/07/24 15:48:34;;;;;;;7.82;4.18;;;;;;;19.63;100.00;100105.56;5026540;28;20451;-71
2023/07/24 15:50:59;;;;;;;6.10;3.78;;;;;;;19.48;100.00;100123.13;5018712;28;20054;-71
2023/07/24 15:53:24;;;;;;;4.93;4.00;;;;;;;19.33;100.00;100120.69;5011648;28;20022;-66
2023/07/24 15:55:50;;;;;;;5.50;4.47;;;;;;;19.20;100.00;100130.47;5030118;28;20112;-70
2023/07/24 15:58:15;;;;;;;7.72;5.10;;;;;;;19.13;100.00;100127.34;5033098;28;20037;-70
